sensor_id;sensor_type;location;lat;lon;timestamp;P1;P2;P0
28647;PMS5003;17137;51.494;-0.262;2023-02-01T00:00:09;4;4;
28647;PMS5003;17137;51.494;-0.262;2023-02-01T00:00:40;4;4;
28647;PMS5003;17137;51.494;-0.262;2023-02-01T00:01:10;4;4;
28647;PMS5003;17137;51.494;-0.262;2023-02-01T00:01:41;4;4;
28647;PMS5003;17137;51.494;-0.262;2023-02-01T00:02:11;5;5;
28647;PMS5003;17137;51.494;-0.262;2023-02-01T00:02:42;5;5;
28647;PMS5003;17137;51.494;-0.262;2023-02-01T00:03:12;5;5;
28647;PMS5003;17137;51.494;-0.262;2023-02-01T00:03:42;5;5;
28647;PMS5003;17137;51.494;-0.262;2023-02-01T00:04:12;5;5;
28647;PMS5003;17137;51.494;-0.262;2023-02-01T00:04:43;5;5;
28647;PMS5003;17137;51.494;-0.262;2023-02-01T00:05:13;5;5;
28647;PMS5003;17137;51.494;-0.262;2023-02-01T00:05:44;5;5;
28647;PMS5003;17137;51.494;-0.262;2023-02-01T00:06:23;5;5;
28647;PMS5003;17137;51.494;-0.262;2023-02-01T00:06:54;6;5;
28647;PMS5003;17137;51.494;-0.262;2023-02-01T00:07:24;6;5;
28647;PMS5003;17137;51.494;-0.262;2023-02-01T00:07:54;6;5;
28647;PMS5003;17137;51.494;-0.262;2023-02-01T00:08:25;10;5;
28647;PMS5003;17137;51.494;-0.262;2023-02-01T00:08:55;10;5;
28647;PMS5003;17137;51.494;-0.262;2023-02-01T00:09:26;10;5;
28647;PMS5003;17137;51.494;-0.262;2023-02-01T00:09:56;10;5;
28647;PMS5003;17137;51.494;-0.262;2023-02-01T00:10:27;10;5;
28647;PMS5003;17137;51.494;-0.262;2023-02-01T00:10:57;10;5;
28647;PMS5003;17137;51.494;-0.262;2023-02-01T00:11:29;11;5;
28647;PMS5003;17137;51.494;-0.262;2023-02-01T00:11:59;11;5;
28647;PMS5003;17137;51.494;-0.262;2023-02-01T00:12:29;11;5;
28647;PMS5003;17137;51.494;-0.262;2023-02-01T00:13:00;10;5;
28647;PMS5003;17137;51.494;-0.262;2023-02-01T00:13:31;10;5;
28647;PMS5003;17137;51.494;-0.262;2023-02-01T00:14:02;10;5;
28647;PMS5003;17137;51.494;-0.262;2023-02-01T00:14:33;12;5;
28647;PMS5003;17137;51.494;-0.262;2023-02-01T00:15:03;12;5;
28647;PMS5003;17137;51.494;-0.262;2023-02-01T00:15:34;12;5;
28647;PMS5003;17137;51.494;-0.262;2023-02-01T00:16:05;13;5;
28647;PMS5003;17137;51.494;-0.262;2023-02-01T00:16:37;13;5;
28647;PMS5003;17137;51.494;-0.262;2023-02-01T00:17:07;13;5;
28647;PMS5003;17137;51.494;-0.262;2023-02-01T00:17:38;12;4;
28647;PMS5003;17137;51.494;-0.262;2023-02-01T00:18:08;12;4;
28647;PMS5003;17137;51.494;-0.262;2023-02-01T00:18:38;12;4;
28647;PMS5003;17137;51.494;-0.262;2023-02-01T00:19:10;12;4;
28647;PMS5003;17137;51.494;-0.262;2023-02-01T00:19:42;12;4;
28647;PMS5003;17137;51.494;-0.262;2023-02-01T00:20:12;12;4;
28647;PMS5003;17137;51.494;-0.262;2023-02-01T00:20:45;12;4;
28647;PMS5003;17137;51.494;-0.262;2023-02-01T00:21:16;12;4;
28647;PMS5003;17137;51.494;-0.262;2023-02-01T00:21:48;12;4;
28647;PMS5003;17137;51.494;-0.262;2023-02-01T00:22:19;11;4;
28647;PMS5003;17137;51.494;-0.262;2023-02-01T00:22:49;11;4;
28647;PMS5003;17137;51.494;-0.262;2023-02-01T00:23:19;11;4;
28647;PMS5003;17137;51.494;-0.262;2023-02-01T00:23:49;7;4;
28647;PMS5003;17137;51.494;-0.262;2023-02-01T00:24:20;7;4;
28647;PMS5003;17137;51.494;-0.262;2023-02-01T00:24:50;7;4;
28647;PMS5003;17137;51.494;-0.262;2023-02-01T00:25:20;7;4;
28647;PMS5003;17137;51.494;-0.262;2023-02-01T00:25:50;7;4;
28647;PMS5003;17137;51.494;-0.262;2023-02-01T00:26:24;7;4;
28647;PMS5003;17137;51.494;-0.262;2023-02-01T00:26:59;7;4;
28647;PMS5003;17137;51.494;-0.262;2023-02-01T00:27:30;7;4;
28647;PMS5003;17137;51.494;-0.262;2023-02-01T00:28:00;7;4;
28647;PMS5003;17137;51.494;-0.262;2023-02-01T00:28:30;9;4;
28647;PMS5003;17137;51.494;-0.262;2023-02-01T00:29:01;9;4;
28647;PMS5003;17137;51.494;-0.262;2023-02-01T00:29:33;9;4;
28647;PMS5003;17137;51.494;-0.262;2023-02-01T00:30:04;6;4;
28647;PMS5003;17137;51.494;-0.262;2023-02-01T00:30:35;6;4;
28647;PMS5003;17137;51.494;-0.262;2023-02-01T00:31:05;6;4;
28647;PMS5003;17137;51.494;-0.262;2023-02-01T00:31:36;5;4;
28647;PMS5003;17137;51.494;-0.262;2023-02-01T00:32:06;5;4;
28647;PMS5003;17137;51.494;-0.262;2023-02-01T00:32:36;5;4;
28647;PMS5003;17137;51.494;-0.262;2023-02-01T00:33:07;5;4;
28647;PMS5003;17137;51.494;-0.262;2023-02-01T00:33:37;5;4;
28647;PMS5003;17137;51.494;-0.262;2023-02-01T00:34:09;5;4;
28647;PMS5003;17137;51.494;-0.262;2023-02-01T00:34:41;5;5;
28647;PMS5003;17137;51.494;-0.262;2023-02-01T00:35:11;5;5;
28647;PMS5003;17137;51.494;-0.262;2023-02-01T00:35:42;5;5;
28647;PMS5003;17137;51.494;-0.262;2023-02-01T00:36:12;5;5;
28647;PMS5003;17137;51.494;-0.262;2023-02-01T00:36:43;5;5;
28647;PMS5003;17137;51.494;-0.262;2023-02-01T00:37:14;5;5;
28647;PMS5003;17137;51.494;-0.262;2023-02-01T00:37:44;5;5;
28647;PMS5003;17137;51.494;-0.262;2023-02-01T00:38:15;5;5;
28647;PMS5003;17137;51.494;-0.262;2023-02-01T00:38:45;5;5;
28647;PMS5003;17137;51.494;-0.262;2023-02-01T00:39:16;6;6;
28647;PMS5003;17137;51.494;-0.262;2023-02-01T00:39:46;6;6;
28647;PMS5003;17137;51.494;-0.262;2023-02-01T00:40:17;6;6;
28647;PMS5003;17137;51.494;-0.262;2023-02-01T00:40:47;5;5;
28647;PMS5003;17137;51.494;-0.262;2023-02-01T00:41:18;5;5;
28647;PMS5003;17137;51.494;-0.262;2023-02-01T00:41:50;5;5;
28647;PMS5003;17137;51.494;-0.262;2023-02-01T00:42:20;6;6;
28647;PMS5003;17137;51.494;-0.262;2023-02-01T00:42:50;6;6;
28647;PMS5003;17137;51.494;-0.262;2023-02-01T00:43:20;6;6;
28647;PMS5003;17137;51.494;-0.262;2023-02-01T00:43:51;6;6;
28647;PMS5003;17137;51.494;-0.262;2023-02-01T00:44:21;6;6;
28647;PMS5003;17137;51.494;-0.262;2023-02-01T00:44:51;6;6;
28647;PMS5003;17137;51.494;-0.262;2023-02-01T00:45:22;9;6;
28647;PMS5003;17137;51.494;-0.262;2023-02-01T00:45:52;9;6;
28647;PMS5003;17137;51.494;-0.262;2023-02-01T00:46:22;9;6;
28647;PMS5003;17137;51.494;-0.262;2023-02-01T00:46:53;9;6;
28647;PMS5003;17137;51.494;-0.262;2023-02-01T00:47:23;9;6;
28647;PMS5003;17137;51.494;-0.262;2023-02-01T00:47:54;9;6;
28647;PMS5003;17137;51.494;-0.262;2023-02-01T00:48:24;9;7;
28647;PMS5003;17137;51.494;-0.262;2023-02-01T00:48:56;9;7;
28647;PMS5003;17137;51.494;-0.262;2023-02-01T00:49:26;9;7;
28647;PMS5003;17137;51.494;-0.262;2023-02-01T00:49:56;9;6;
28647;PMS5003;17137;51.494;-0.262;2023-02-01T00:50:27;9;6;
28647;PMS5003;17137;51.494;-0.262;2023-02-01T00:50:58;9;6;
28647;PMS5003;17137;51.494;-0.262;2023-02-01T00:51:29;7;6;
28647;PMS5003;17137;51.494;-0.262;2023-02-01T00:51:59;7;6;
28647;PMS5003;17137;51.494;-0.262;2023-02-01T00:52:30;7;6;
28647;PMS5003;17137;51.494;-0.262;2023-02-01T00:53:00;9;6;
28647;PMS5003;17137;51.494;-0.262;2023-02-01T00:53:30;9;6;
28647;PMS5003;17137;51.494;-0.262;2023-02-01T00:54:01;9;6;
28647;PMS5003;17137;51.494;-0.262;2023-02-01T00:54:32;9;6;
28647;PMS5003;17137;51.494;-0.262;2023-02-01T00:55:03;9;6;
28647;PMS5003;17137;51.494;-0.262;2023-02-01T00:55:34;9;6;
28647;PMS5003;17137;51.494;-0.262;2023-02-01T00:56:04;10;7;
28647;PMS5003;17137;51.494;-0.262;2023-02-01T00:56:35;10;7;
28647;PMS5003;17137;51.494;-0.262;2023-02-01T00:57:06;10;7;
28647;PMS5003;17137;51.494;-0.262;2023-02-01T00:57:36;10;6;
28647;PMS5003;17137;51.494;-0.262;2023-02-01T00:58:06;10;6;
28647;PMS5003;17137;51.494;-0.262;2023-02-01T00:58:37;10;6;
28647;PMS5003;17137;51.494;-0.262;2023-02-01T00:59:10;11;7;
28647;PMS5003;17137;51.494;-0.262;2023-02-01T00:59:40;11;7;
28647;PMS5003;17137;51.494;-0.262;2023-02-01T01:00:11;11;7;
28647;PMS5003;17137;51.494;-0.262;2023-02-01T01:00:42;10;9;
28647;PMS5003;17137;51.494;-0.262;2023-02-01T01:01:13;10;9;
28647;PMS5003;17137;51.494;-0.262;2023-02-01T01:01:45;10;9;
28647;PMS5003;17137;51.494;-0.262;2023-02-01T01:02:15;10;9;
28647;PMS5003;17137;51.494;-0.262;2023-02-01T01:02:45;10;9;
28647;PMS5003;17137;51.494;-0.262;2023-02-01T01:03:16;10;9;
28647;PMS5003;17137;51.494;-0.262;2023-02-01T01:03:47;9;7;
28647;PMS5003;17137;51.494;-0.262;2023-02-01T01:04:19;9;7;
28647;PMS5003;17137;51.494;-0.262;2023-02-01T01:04:49;9;7;
28647;PMS5003;17137;51.494;-0.262;2023-02-01T01:05:19;12;10;
28647;PMS5003;17137;51.494;-0.262;2023-02-01T01:05:49;12;10;
28647;PMS5003;17137;51.494;-0.262;2023-02-01T01:06:20;12;10;
28647;PMS5003;17137;51.494;-0.262;2023-02-01T01:06:52;12;10;
28647;PMS5003;17137;51.494;-0.262;2023-02-01T01:07:22;12;10;
28647;PMS5003;17137;51.494;-0.262;2023-02-01T01:07:52;12;10;
28647;PMS5003;17137;51.494;-0.262;2023-02-01T01:08:23;12;10;
28647;PMS5003;17137;51.494;-0.262;2023-02-01T01:08:53;12;10;
28647;PMS5003;17137;51.494;-0.262;2023-02-01T01:09:24;12;10;
28647;PMS5003;17137;51.494;-0.262;2023-02-01T01:09:55;11;9;
28647;PMS5003;17137;51.494;-0.262;2023-02-01T01:10:25;11;9;
28647;PMS5003;17137;51.494;-0.262;2023-02-01T01:10:55;11;9;
28647;PMS5003;17137;51.494;-0.262;2023-02-01T01:11:27;10;9;
28647;PMS5003;17137;51.494;-0.262;2023-02-01T01:11:59;10;9;
28647;PMS5003;17137;51.494;-0.262;2023-02-01T01:12:29;10;9;
28647;PMS5003;17137;51.494;-0.262;2023-02-01T01:13:00;10;9;
28647;PMS5003;17137;51.494;-0.262;2023-02-01T01:13:30;10;9;
28647;PMS5003;17137;51.494;-0.262;2023-02-01T01:14:00;10;9;
28647;PMS5003;17137;51.494;-0.262;2023-02-01T01:14:31;9;7;
28647;PMS5003;17137;51.494;-0.262;2023-02-01T01:15:02;9;7;
28647;PMS5003;17137;51.494;-0.262;2023-02-01T01:15:35;9;7;
28647;PMS5003;17137;51.494;-0.262;2023-02-01T01:16:06;9;7;
28647;PMS5003;17137;51.494;-0.262;2023-02-01T01:16:38;9;7;
28647;PMS5003;17137;51.494;-0.262;2023-02-01T01:17:08;9;7;
28647;PMS5003;17137;51.494;-0.262;2023-02-01T01:17:38;6;4;
28647;PMS5003;17137;51.494;-0.262;2023-02-01T01:18:09;6;4;
28647;PMS5003;17137;51.494;-0.262;2023-02-01T01:18:39;6;4;
28647;PMS5003;17137;51.494;-0.262;2023-02-01T01:19:10;6;4;
28647;PMS5003;17137;51.494;-0.262;2023-02-01T01:19:41;6;3;
28647;PMS5003;17137;51.494;-0.262;2023-02-01T01:20:11;6;3;
28647;PMS5003;17137;51.494;-0.262;2023-02-01T01:20:42;6;3;
28647;PMS5003;17137;51.494;-0.262;2023-02-01T01:21:17;7;4;
28647;PMS5003;17137;51.494;-0.262;2023-02-01T01:21:48;7;4;
28647;PMS5003;17137;51.494;-0.262;2023-02-01T01:22:19;7;4;
28647;PMS5003;17137;51.494;-0.262;2023-02-01T01:22:49;7;4;
28647;PMS5003;17137;51.494;-0.262;2023-02-01T01:23:19;7;4;
28647;PMS5003;17137;51.494;-0.262;2023-02-01T01:23:50;7;4;
28647;PMS5003;17137;51.494;-0.262;2023-02-01T01:24:20;6;4;
28647;PMS5003;17137;51.494;-0.262;2023-02-01T01:24:51;6;4;
28647;PMS5003;17137;51.494;-0.262;2023-02-01T01:25:21;6;4;
28647;PMS5003;17137;51.494;-0.262;2023-02-01T01:25:51;8;6;
28647;PMS5003;17137;51.494;-0.262;2023-02-01T01:26:23;8;6;
28647;PMS5003;17137;51.494;-0.262;2023-02-01T01:26:54;8;6;
28647;PMS5003;17137;51.494;-0.262;2023-02-01T01:27:24;8;6;
28647;PMS5003;17137;51.494;-0.262;2023-02-01T01:27:54;7;6;
28647;PMS5003;17137;51.494;-0.262;2023-02-01T01:28:25;7;6;
28647;PMS5003;17137;51.494;-0.262;2023-02-01T01:28:55;7;6;
28647;PMS5003;17137;51.494;-0.262;2023-02-01T01:29:26;7;5;
28647;PMS5003;17137;51.494;-0.262;2023-02-01T01:29:57;7;5;
28647;PMS5003;17137;51.494;-0.262;2023-02-01T01:30:27;7;5;
28647;PMS5003;17137;51.494;-0.262;2023-02-01T01:30:57;8;5;
28647;PMS5003;17137;51.494;-0.262;2023-02-01T01:31:28;8;5;
28647;PMS5003;17137;51.494;-0.262;2023-02-01T01:31:59;8;5;
28647;PMS5003;17137;51.494;-0.262;2023-02-01T01:32:29;8;5;
28647;PMS5003;17137;51.494;-0.262;2023-02-01T01:32:59;8;5;
28647;PMS5003;17137;51.494;-0.262;2023-02-01T01:33:30;8;5;
28647;PMS5003;17137;51.494;-0.262;2023-02-01T01:34:00;7;5;
28647;PMS5003;17137;51.494;-0.262;2023-02-01T01:34:30;7;5;
28647;PMS5003;17137;51.494;-0.262;2023-02-01T01:35:01;7;5;
28647;PMS5003;17137;51.494;-0.262;2023-02-01T01:35:31;7;5;
28647;PMS5003;17137;51.494;-0.262;2023-02-01T01:36:04;7;5;
28647;PMS5003;17137;51.494;-0.262;2023-02-01T01:36:34;8;6;
28647;PMS5003;17137;51.494;-0.262;2023-02-01T01:37:09;8;6;
28647;PMS5003;17137;51.494;-0.262;2023-02-01T01:37:40;8;6;
28647;PMS5003;17137;51.494;-0.262;2023-02-01T01:38:10;11;6;
28647;PMS5003;17137;51.494;-0.262;2023-02-01T01:38:41;11;6;
28647;PMS5003;17137;51.494;-0.262;2023-02-01T01:39:11;11;6;
28647;PMS5003;17137;51.494;-0.262;2023-02-01T01:39:42;11;6;
28647;PMS5003;17137;51.494;-0.262;2023-02-01T01:40:12;11;6;
28647;PMS5003;17137;51.494;-0.262;2023-02-01T01:40:44;11;6;
28647;PMS5003;17137;51.494;-0.262;2023-02-01T01:41:16;10;5;
28647;PMS5003;17137;51.494;-0.262;2023-02-01T01:41:48;10;5;
28647;PMS5003;17137;51.494;-0.262;2023-02-01T01:42:19;4;4;
28647;PMS5003;17137;51.494;-0.262;2023-02-01T01:42:49;4;4;
28647;PMS5003;17137;51.494;-0.262;2023-02-01T01:43:19;5;5;
28647;PMS5003;17137;51.494;-0.262;2023-02-01T01:43:51;5;5;
28647;PMS5003;17137;51.494;-0.262;2023-02-01T01:44:57;5;5;
28647;PMS5003;17137;51.494;-0.262;2023-02-01T01:45:30;5;5;
28647;PMS5003;17137;51.494;-0.262;2023-02-01T01:46:02;5;5;
28647;PMS5003;17137;51.494;-0.262;2023-02-01T01:46:33;5;5;
28647;PMS5003;17137;51.494;-0.262;2023-02-01T01:47:05;5;5;
28647;PMS5003;17137;51.494;-0.262;2023-02-01T01:47:37;5;5;
28647;PMS5003;17137;51.494;-0.262;2023-02-01T01:48:12;5;5;
28647;PMS5003;17137;51.494;-0.262;2023-02-01T01:48:46;5;5;
28647;PMS5003;17137;51.494;-0.262;2023-02-01T01:49:20;5;5;
28647;PMS5003;17137;51.494;-0.262;2023-02-01T01:49:54;5;5;
28647;PMS5003;17137;51.494;-0.262;2023-02-01T01:50:26;6;5;
28647;PMS5003;17137;51.494;-0.262;2023-02-01T01:51:00;6;5;
28647;PMS5003;17137;51.494;-0.262;2023-02-01T01:51:36;5;3;
28647;PMS5003;17137;51.494;-0.262;2023-02-01T01:52:10;5;3;
28647;PMS5003;17137;51.494;-0.262;2023-02-01T01:52:41;5;3;
28647;PMS5003;17137;51.494;-0.262;2023-02-01T01:53:16;6;2;
28647;PMS5003;17137;51.494;-0.262;2023-02-01T01:53:53;6;2;
28647;PMS5003;17137;51.494;-0.262;2023-02-01T01:54:29;6;2;
28647;PMS5003;17137;51.494;-0.262;2023-02-01T01:55:02;6;2;
28647;PMS5003;17137;51.494;-0.262;2023-02-01T01:55:36;6;2;
28647;PMS5003;17137;51.494;-0.262;2023-02-01T01:56:09;6;2;
28647;PMS5003;17137;51.494;-0.262;2023-02-01T01:56:41;5;2;
28647;PMS5003;17137;51.494;-0.262;2023-02-01T01:57:12;5;2;
28647;PMS5003;17137;51.494;-0.262;2023-02-01T01:57:48;5;2;
28647;PMS5003;17137;51.494;-0.262;2023-02-01T01:58:24;5;2;
28647;PMS5003;17137;51.494;-0.262;2023-02-01T01:58:56;5;2;
28647;PMS5003;17137;51.494;-0.262;2023-02-01T01:59:26;5;2;
28647;PMS5003;17137;51.494;-0.262;2023-02-01T01:59:59;4;2;
28647;PMS5003;17137;51.494;-0.262;2023-02-01T02:00:33;4;1;
28647;PMS5003;17137;51.494;-0.262;2023-02-01T02:01:04;4;1;
28647;PMS5003;17137;51.494;-0.262;2023-02-01T02:01:34;4;1;
28647;PMS5003;17137;51.494;-0.262;2023-02-01T02:02:05;4;1;
28647;PMS5003;17137;51.494;-0.262;2023-02-01T02:02:35;4;1;
28647;PMS5003;17137;51.494;-0.262;2023-02-01T02:03:08;4;1;
28647;PMS5003;17137;51.494;-0.262;2023-02-01T02:03:44;4;1;
28647;PMS5003;17137;51.494;-0.262;2023-02-01T02:04:15;4;1;
28647;PMS5003;17137;51.494;-0.262;2023-02-01T02:04:46;4;1;
28647;PMS5003;17137;51.494;-0.262;2023-02-01T02:05:17;4;1;
28647;PMS5003;17137;51.494;-0.262;2023-02-01T02:05:50;4;1;
28647;PMS5003;17137;51.494;-0.262;2023-02-01T02:06:26;4;1;
28647;PMS5003;17137;51.494;-0.262;2023-02-01T02:07:05;4;1;
28647;PMS5003;17137;51.494;-0.262;2023-02-01T02:07:40;4;1;
28647;PMS5003;17137;51.494;-0.262;2023-02-01T02:08:15;4;1;
28647;PMS5003;17137;51.494;-0.262;2023-02-01T02:08:47;5;2;
28647;PMS5003;17137;51.494;-0.262;2023-02-01T02:09:17;3;2;
28647;PMS5003;17137;51.494;-0.262;2023-02-01T02:09:48;3;2;
28647;PMS5003;17137;51.494;-0.262;2023-02-01T02:10:19;3;2;
28647;PMS5003;17137;51.494;-0.262;2023-02-01T02:10:49;3;2;
28647;PMS5003;17137;51.494;-0.262;2023-02-01T02:11:20;3;2;
28647;PMS5003;17137;51.494;-0.262;2023-02-01T02:11:51;3;2;
28647;PMS5003;17137;51.494;-0.262;2023-02-01T02:12:21;3;2;
28647;PMS5003;17137;51.494;-0.262;2023-02-01T02:12:52;2;2;
28647;PMS5003;17137;51.494;-0.262;2023-02-01T02:13:22;2;2;
28647;PMS5003;17137;51.494;-0.262;2023-02-01T02:13:53;2;2;
28647;PMS5003;17137;51.494;-0.262;2023-02-01T02:14:25;2;2;
28647;PMS5003;17137;51.494;-0.262;2023-02-01T02:14:56;2;2;
28647;PMS5003;17137;51.494;-0.262;2023-02-01T02:15:27;2;2;
28647;PMS5003;17137;51.494;-0.262;2023-02-01T02:16:04;1;1;
28647;PMS5003;17137;51.494;-0.262;2023-02-01T02:16:52;1;1;
28647;PMS5003;17137;51.494;-0.262;2023-02-01T02:17:34;1;1;
28647;PMS5003;17137;51.494;-0.262;2023-02-01T02:18:12;9;3;
28647;PMS5003;17137;51.494;-0.262;2023-02-01T02:18:50;7;3;
28647;PMS5003;17137;51.494;-0.262;2023-02-01T02:19:48;7;3;
28647;PMS5003;17137;51.494;-0.262;2023-02-01T02:20:50;7;3;
28647;PMS5003;17137;51.494;-0.262;2023-02-01T02:21:38;6;3;
28647;PMS5003;17137;51.494;-0.262;2023-02-01T02:25:22;6;3;
28647;PMS5003;17137;51.494;-0.262;2023-02-01T02:29:27;7;3;
28647;PMS5003;17137;51.494;-0.262;2023-02-01T02:30:23;7;3;
28647;PMS5003;17137;51.494;-0.262;2023-02-01T02:31:24;7;3;
28647;PMS5003;17137;51.494;-0.262;2023-02-01T02:32:47;7;3;
28647;PMS5003;17137;51.494;-0.262;2023-02-01T02:33:38;7;3;
28647;PMS5003;17137;51.494;-0.262;2023-02-01T02:34:17;7;3;
28647;PMS5003;17137;51.494;-0.262;2023-02-01T02:34:55;7;3;
28647;PMS5003;17137;51.494;-0.262;2023-02-01T02:35:30;7;3;
28647;PMS5003;17137;51.494;-0.262;2023-02-01T02:36:10;3;1;
28647;PMS5003;17137;51.494;-0.262;2023-02-01T02:36:48;3;2;
28647;PMS5003;17137;51.494;-0.262;2023-02-01T02:37:27;3;2;
28647;PMS5003;17137;51.494;-0.262;2023-02-01T02:38:11;3;2;
28647;PMS5003;17137;51.494;-0.262;2023-02-01T02:38:49;2;2;
28647;PMS5003;17137;51.494;-0.262;2023-02-01T02:39:28;2;2;
28647;PMS5003;17137;51.494;-0.262;2023-02-01T02:40:11;2;2;
28647;PMS5003;17137;51.494;-0.262;2023-02-01T02:40:49;4;2;
28647;PMS5003;17137;51.494;-0.262;2023-02-01T02:41:26;4;2;
28647;PMS5003;17137;51.494;-0.262;2023-02-01T02:42:02;4;2;
28647;PMS5003;17137;51.494;-0.262;2023-02-01T02:42:38;4;2;
28647;PMS5003;17137;51.494;-0.262;2023-02-01T02:43:19;4;2;
28647;PMS5003;17137;51.494;-0.262;2023-02-01T02:43:53;4;2;
28647;PMS5003;17137;51.494;-0.262;2023-02-01T02:44:30;4;2;
28647;PMS5003;17137;51.494;-0.262;2023-02-01T02:45:06;4;2;
28647;PMS5003;17137;51.494;-0.262;2023-02-01T02:45:43;4;2;
28647;PMS5003;17137;51.494;-0.262;2023-02-01T02:46:21;3;2;
28647;PMS5003;17137;51.494;-0.262;2023-02-01T02:46:54;3;2;
28647;PMS5003;17137;51.494;-0.262;2023-02-01T02:47:33;3;2;
28647;PMS5003;17137;51.494;-0.262;2023-02-01T02:48:10;3;2;
28647;PMS5003;17137;51.494;-0.262;2023-02-01T02:48:47;3;2;
28647;PMS5003;17137;51.494;-0.262;2023-02-01T02:49:23;3;2;
28647;PMS5003;17137;51.494;-0.262;2023-02-01T02:50:02;2;2;
28647;PMS5003;17137;51.494;-0.262;2023-02-01T02:50:41;2;2;
28647;PMS5003;17137;51.494;-0.262;2023-02-01T02:51:17;2;2;
28647;PMS5003;17137;51.494;-0.262;2023-02-01T02:51:54;2;2;
28647;PMS5003;17137;51.494;-0.262;2023-02-01T02:52:28;2;2;
28647;PMS5003;17137;51.494;-0.262;2023-02-01T02:53:02;2;2;
28647;PMS5003;17137;51.494;-0.262;2023-02-01T02:53:37;2;2;
28647;PMS5003;17137;51.494;-0.262;2023-02-01T02:54:13;2;2;
28647;PMS5003;17137;51.494;-0.262;2023-02-01T02:54:48;2;2;
28647;PMS5003;17137;51.494;-0.262;2023-02-01T02:55:20;2;2;
28647;PMS5003;17137;51.494;-0.262;2023-02-01T02:55:51;4;2;
28647;PMS5003;17137;51.494;-0.262;2023-02-01T02:56:22;4;2;
28647;PMS5003;17137;51.494;-0.262;2023-02-01T02:56:56;4;2;
28647;PMS5003;17137;51.494;-0.262;2023-02-01T02:57:30;4;2;
28647;PMS5003;17137;51.494;-0.262;2023-02-01T02:58:04;4;2;
28647;PMS5003;17137;51.494;-0.262;2023-02-01T02:58:36;4;2;
28647;PMS5003;17137;51.494;-0.262;2023-02-01T02:59:07;4;2;
28647;PMS5003;17137;51.494;-0.262;2023-02-01T02:59:39;4;2;
28647;PMS5003;17137;51.494;-0.262;2023-02-01T03:00:14;4;1;
28647;PMS5003;17137;51.494;-0.262;2023-02-01T03:00:47;4;1;
28647;PMS5003;17137;51.494;-0.262;2023-02-01T03:01:18;4;1;
28647;PMS5003;17137;51.494;-0.262;2023-02-01T03:01:49;4;1;
28647;PMS5003;17137;51.494;-0.262;2023-02-01T03:02:20;4;1;
28647;PMS5003;17137;51.494;-0.262;2023-02-01T03:02:52;4;1;
28647;PMS5003;17137;51.494;-0.262;2023-02-01T03:03:23;4;1;
28647;PMS5003;17137;51.494;-0.262;2023-02-01T03:03:53;4;1;
28647;PMS5003;17137;51.494;-0.262;2023-02-01T03:04:24;5;3;
28647;PMS5003;17137;51.494;-0.262;2023-02-01T03:04:55;5;3;
28647;PMS5003;17137;51.494;-0.262;2023-02-01T03:05:25;6;3;
28647;PMS5003;17137;51.494;-0.262;2023-02-01T03:06:01;6;3;
28647;PMS5003;17137;51.494;-0.262;2023-02-01T03:06:31;6;3;
28647;PMS5003;17137;51.494;-0.262;2023-02-01T03:07:12;6;3;
28647;PMS5003;17137;51.494;-0.262;2023-02-01T03:07:48;6;3;
28647;PMS5003;17137;51.494;-0.262;2023-02-01T03:08:25;6;3;
28647;PMS5003;17137;51.494;-0.262;2023-02-01T03:08:56;5;3;
28647;PMS5003;17137;51.494;-0.262;2023-02-01T03:09:31;5;3;
28647;PMS5003;17137;51.494;-0.262;2023-02-01T03:10:07;5;3;
28647;PMS5003;17137;51.494;-0.262;2023-02-01T03:10:48;5;3;
28647;PMS5003;17137;51.494;-0.262;2023-02-01T03:11:23;5;3;
28647;PMS5003;17137;51.494;-0.262;2023-02-01T03:11:55;5;3;
28647;PMS5003;17137;51.494;-0.262;2023-02-01T03:12:30;4;3;
28647;PMS5003;17137;51.494;-0.262;2023-02-01T03:13:07;4;3;
28647;PMS5003;17137;51.494;-0.262;2023-02-01T03:13:42;2;2;
28647;PMS5003;17137;51.494;-0.262;2023-02-01T03:14:17;2;2;
28647;PMS5003;17137;51.494;-0.262;2023-02-01T03:14:51;3;2;
28647;PMS5003;17137;51.494;-0.262;2023-02-01T03:15:29;3;2;
28647;PMS5003;17137;51.494;-0.262;2023-02-01T03:16:09;3;2;
28647;PMS5003;17137;51.494;-0.262;2023-02-01T03:16:44;3;2;
28647;PMS5003;17137;51.494;-0.262;2023-02-01T03:17:19;3;2;
28647;PMS5003;17137;51.494;-0.262;2023-02-01T03:17:57;3;2;
28647;PMS5003;17137;51.494;-0.262;2023-02-01T03:18:32;3;2;
28647;PMS5003;17137;51.494;-0.262;2023-02-01T03:19:11;3;2;
28647;PMS5003;17137;51.494;-0.262;2023-02-01T03:19:48;3;2;
28647;PMS5003;17137;51.494;-0.262;2023-02-01T03:20:22;2;1;
28647;PMS5003;17137;51.494;-0.262;2023-02-01T03:20:54;2;1;
28647;PMS5003;17137;51.494;-0.262;2023-02-01T03:21:27;2;1;
28647;PMS5003;17137;51.494;-0.262;2023-02-01T03:22:04;2;1;
28647;PMS5003;17137;51.494;-0.262;2023-02-01T03:22:37;2;1;
28647;PMS5003;17137;51.494;-0.262;2023-02-01T03:23:10;6;3;
28647;PMS5003;17137;51.494;-0.262;2023-02-01T03:23:45;6;3;
28647;PMS5003;17137;51.494;-0.262;2023-02-01T03:24:21;6;3;
28647;PMS5003;17137;51.494;-0.262;2023-02-01T03:24:55;5;2;
28647;PMS5003;17137;51.494;-0.262;2023-02-01T03:25:30;5;2;
28647;PMS5003;17137;51.494;-0.262;2023-02-01T03:26:02;5;2;
28647;PMS5003;17137;51.494;-0.262;2023-02-01T03:26:36;6;3;
28647;PMS5003;17137;51.494;-0.262;2023-02-01T03:27:13;6;3;
28647;PMS5003;17137;51.494;-0.262;2023-02-01T03:27:48;6;3;
28647;PMS5003;17137;51.494;-0.262;2023-02-01T03:28:23;6;3;
28647;PMS5003;17137;51.494;-0.262;2023-02-01T03:28:55;6;3;
28647;PMS5003;17137;51.494;-0.262;2023-02-01T03:29:37;6;3;
28647;PMS5003;17137;51.494;-0.262;2023-02-01T03:30:11;5;2;
28647;PMS5003;17137;51.494;-0.262;2023-02-01T03:30:46;5;2;
28647;PMS5003;17137;51.494;-0.262;2023-02-01T03:31:18;5;2;
28647;PMS5003;17137;51.494;-0.262;2023-02-01T03:31:49;5;2;
28647;PMS5003;17137;51.494;-0.262;2023-02-01T03:32:20;4;1;
28647;PMS5003;17137;51.494;-0.262;2023-02-01T03:32:52;4;1;
28647;PMS5003;17137;51.494;-0.262;2023-02-01T03:33:26;4;1;
28647;PMS5003;17137;51.494;-0.262;2023-02-01T03:33:57;4;2;
28647;PMS5003;17137;51.494;-0.262;2023-02-01T03:34:28;4;2;
28647;PMS5003;17137;51.494;-0.262;2023-02-01T03:34:59;4;2;
28647;PMS5003;17137;51.494;-0.262;2023-02-01T03:35:30;4;1;
28647;PMS5003;17137;51.494;-0.262;2023-02-01T03:36:09;4;1;
28647;PMS5003;17137;51.494;-0.262;2023-02-01T03:36:46;4;1;
28647;PMS5003;17137;51.494;-0.262;2023-02-01T03:37:22;4;1;
28647;PMS5003;17137;51.494;-0.262;2023-02-01T03:37:56;4;1;
28647;PMS5003;17137;51.494;-0.262;2023-02-01T03:38:36;4;1;
28647;PMS5003;17137;51.494;-0.262;2023-02-01T03:39:11;4;1;
28647;PMS5003;17137;51.494;-0.262;2023-02-01T03:39:47;4;1;
28647;PMS5003;17137;51.494;-0.262;2023-02-01T03:40:23;4;1;
28647;PMS5003;17137;51.494;-0.262;2023-02-01T03:40:56;4;1;
28647;PMS5003;17137;51.494;-0.262;2023-02-01T03:41:34;2;2;
28647;PMS5003;17137;51.494;-0.262;2023-02-01T03:42:10;2;2;
28647;PMS5003;17137;51.494;-0.262;2023-02-01T03:42:47;2;2;
28647;PMS5003;17137;51.494;-0.262;2023-02-01T03:43:22;2;2;
28647;PMS5003;17137;51.494;-0.262;2023-02-01T03:43:58;2;2;
28647;PMS5003;17137;51.494;-0.262;2023-02-01T03:44:37;2;2;
28647;PMS5003;17137;51.494;-0.262;2023-02-01T03:45:13;2;2;
28647;PMS5003;17137;51.494;-0.262;2023-02-01T03:45:49;2;2;
28647;PMS5003;17137;51.494;-0.262;2023-02-01T03:46:25;2;2;
28647;PMS5003;17137;51.494;-0.262;2023-02-01T03:47:02;2;2;
28647;PMS5003;17137;51.494;-0.262;2023-02-01T03:47:37;2;2;
28647;PMS5003;17137;51.494;-0.262;2023-02-01T03:48:11;2;2;
28647;PMS5003;17137;51.494;-0.262;2023-02-01T03:48:44;2;2;
28647;PMS5003;17137;51.494;-0.262;2023-02-01T03:49:17;2;2;
28647;PMS5003;17137;51.494;-0.262;2023-02-01T03:49:53;2;2;